sensor_id;sensor_type;location;lat;lon;timestamp;pressure;altitude;pressure_sealevel;temperature;humidity
21821;BME280;11073;48.586;12.066;2022-09-04T00:01:48;96523.69;;;17.04;68.19
21821;BME280;11073;48.586;12.066;2022-09-04T00:04:28;96517.41;;;16.94;68.05
21821;BME280;11073;48.586;12.066;2022-09-04T00:07:05;96526.72;;;16.88;67.81
21821;BME280;11073;48.586;12.066;2022-09-04T00:09:41;96533.56;;;16.80;67.92
21821;BME280;11073;48.586;12.066;2022-09-04T00:12:13;96531.38;;;16.82;67.87
21821;BME280;11073;48.586;12.066;2022-09-04T00:14:44;96523.72;;;16.79;67.87
21821;BME280;11073;48.586;12.066;2022-09-04T00:17:26;96522.94;;;16.73;67.73
21821;BME280;11073;48.586;12.066;2022-09-04T00:20:00;96524.81;;;16.63;67.63
21821;BME280;11073;48.586;12.066;2022-09-04T00:22:34;96527.28;;;16.59;67.70
21821;BME280;11073;48.586;12.066;2022-09-04T00:25:14;96527.81;;;16.56;67.75
21821;BME280;11073;48.586;12.066;2022-09-04T00:27:49;96526.19;;;16.45;67.89
21821;BME280;11073;48.586;12.066;2022-09-04T00:30:21;96529.72;;;16.35;68.17
21821;BME280;11073;48.586;12.066;2022-09-04T00:32:58;96515.53;;;16.28;68.46
21821;BME280;11073;48.586;12.066;2022-09-04T00:35:29;96529.47;;;16.26;68.79
21821;BME280;11073;48.586;12.066;2022-09-04T00:38:02;96525.91;;;16.31;68.90
21821;BME280;11073;48.586;12.066;2022-09-04T00:40:36;96526.75;;;16.32;69.06
21821;BME280;11073;48.586;12.066;2022-09-04T00:43:29;96531.38;;;16.36;69.52
21821;BME280;11073;48.586;12.066;2022-09-04T00:46:08;96522.09;;;16.32;69.48
21821;BME280;11073;48.586;12.066;2022-09-04T00:49:06;96529.75;;;16.40;69.85
21821;BME280;11073;48.586;12.066;2022-09-04T00:51:45;96530.28;;;16.37;69.68
21821;BME280;11073;48.586;12.066;2022-09-04T00:54:48;96536.56;;;16.27;69.26
21821;BME280;11073;48.586;12.066;2022-09-04T00:57:46;96535.75;;;16.27;69.70
21821;BME280;11073;48.586;12.066;2022-09-04T01:00:21;96535.75;;;16.32;69.77
21821;BME280;11073;48.586;12.066;2022-09-04T01:03:14;96545.31;;;16.30;69.51
21821;BME280;11073;48.586;12.066;2022-09-04T01:06:02;96539.84;;;16.30;69.38
21821;BME280;11073;48.586;12.066;2022-09-04T01:08:41;96547.50;;;16.33;69.33
21821;BME280;11073;48.586;12.066;2022-09-04T01:11:25;96545.84;;;16.37;69.46
21821;BME280;11073;48.586;12.066;2022-09-04T01:14:06;96541.22;;;16.37;69.27
21821;BME280;11073;48.586;12.066;2022-09-04T01:16:45;96549.13;;;16.39;69.07
21821;BME280;11073;48.586;12.066;2022-09-04T01:19:28;96551.88;;;16.39;68.77
21821;BME280;11073;48.586;12.066;2022-09-04T01:22:10;96552.97;;;16.33;68.69
21821;BME280;11073;48.586;12.066;2022-09-04T01:24:58;96556.50;;;16.33;68.48
21821;BME280;11073;48.586;12.066;2022-09-04T01:27:40;96560.88;;;16.34;68.22
21821;BME280;11073;48.586;12.066;2022-09-04T01:30:14;96555.41;;;16.24;67.91
21821;BME280;11073;48.586;12.066;2022-09-04T01:32:54;96562.50;;;16.20;67.61
21821;BME280;11073;48.586;12.066;2022-09-04T01:35:31;96554.59;;;16.08;67.36
21821;BME280;11073;48.586;12.066;2022-09-04T01:38:08;96565.47;;;16.03;67.55
21821;BME280;11073;48.586;12.066;2022-09-04T01:40:43;96558.09;;;16.04;67.84
21821;BME280;11073;48.586;12.066;2022-09-04T01:43:16;96557.81;;;16.00;67.82
21821;BME280;11073;48.586;12.066;2022-09-04T01:48:50;96556.47;;;15.97;67.89
21821;BME280;11073;48.586;12.066;2022-09-04T01:51:25;96567.91;;;15.99;67.83
21821;BME280;11073;48.586;12.066;2022-09-04T01:54:11;96567.13;;;15.94;67.78
21821;BME280;11073;48.586;12.066;2022-09-04T01:56:44;96564.09;;;15.90;67.93
21821;BME280;11073;48.586;12.066;2022-09-04T01:59:24;96561.88;;;15.82;68.10
21821;BME280;11073;48.586;12.066;2022-09-04T02:01:57;96565.16;;;15.79;68.54
21821;BME280;11073;48.586;12.066;2022-09-04T02:04:36;96575.53;;;15.82;68.72
21821;BME280;11073;48.586;12.066;2022-09-04T02:07:13;96578.00;;;15.84;68.67
21821;BME280;11073;48.586;12.066;2022-09-04T02:09:51;96575.22;;;15.79;68.30
21821;BME280;11073;48.586;12.066;2022-09-04T02:12:28;96580.16;;;15.77;68.43
21821;BME280;11073;48.586;12.066;2022-09-04T02:15:10;96582.06;;;15.76;68.42
21821;BME280;11073;48.586;12.066;2022-09-04T02:17:43;96578.25;;;15.72;68.28
21821;BME280;11073;48.586;12.066;2022-09-04T02:20:20;96575.47;;;15.67;68.18
21821;BME280;11073;48.586;12.066;2022-09-04T02:22:58;96571.59;;;15.58;68.46
21821;BME280;11073;48.586;12.066;2022-09-04T02:25:35;96574.88;;;15.60;68.73
21821;BME280;11073;48.586;12.066;2022-09-04T02:28:14;96573.28;;;15.64;68.86
21821;BME280;11073;48.586;12.066;2022-09-04T02:30:51;96566.22;;;15.68;68.89
21821;BME280;11073;48.586;12.066;2022-09-04T02:33:28;96572.47;;;15.68;68.95
21821;BME280;11073;48.586;12.066;2022-09-04T02:36:07;96576.31;;;15.73;68.46
21821;BME280;11073;48.586;12.066;2022-09-04T02:38:43;96567.50;;;15.60;68.37
21821;BME280;11073;48.586;12.066;2022-09-04T02:41:19;96561.44;;;15.43;68.50
21821;BME280;11073;48.586;12.066;2022-09-04T02:44:00;96573.72;;;15.45;68.46
21821;BME280;11073;48.586;12.066;2022-09-04T02:46:47;96576.75;;;15.54;68.59
21821;BME280;11073;48.586;12.066;2022-09-04T02:49:29;96571.06;;;15.61;68.58
21821;BME280;11073;48.586;12.066;2022-09-04T02:52:09;96576.78;;;15.59;68.12
21821;BME280;11073;48.586;12.066;2022-09-04T02:54:52;96584.47;;;15.62;67.92
21821;BME280;11073;48.586;12.066;2022-09-04T02:57:33;96586.38;;;15.62;68.14
21821;BME280;11073;48.586;12.066;2022-09-04T03:00:09;96579.53;;;15.59;67.98
21821;BME280;11073;48.586;12.066;2022-09-04T03:02:57;96580.63;;;15.63;68.06
21821;BME280;11073;48.586;12.066;2022-09-04T03:05:30;96580.09;;;15.61;67.73
21821;BME280;11073;48.586;12.066;2022-09-04T03:08:05;96580.00;;;15.46;67.54
21821;BME280;11073;48.586;12.066;2022-09-04T03:10:41;96583.25;;;15.38;67.64
21821;BME280;11073;48.586;12.066;2022-09-04T03:13:19;96575.88;;;15.38;68.18
21821;BME280;11073;48.586;12.066;2022-09-04T03:15:52;96577.78;;;15.38;68.35
21821;BME280;11073;48.586;12.066;2022-09-04T03:18:29;96577.50;;;15.39;68.55
21821;BME280;11073;48.586;12.066;2022-09-04T03:21:02;96581.38;;;15.43;68.50
21821;BME280;11073;48.586;12.066;2022-09-04T03:23:39;96593.91;;;15.44;68.27
21821;BME280;11073;48.586;12.066;2022-09-04T03:26:17;96585.44;;;15.41;68.32
21821;BME280;11073;48.586;12.066;2022-09-04T03:28:58;96590.91;;;15.46;68.10
21821;BME280;11073;48.586;12.066;2022-09-04T03:31:34;96594.47;;;15.47;68.07
21821;BME280;11073;48.586;12.066;2022-09-04T03:34:16;96593.63;;;15.46;68.10
21821;BME280;11073;48.586;12.066;2022-09-04T03:36:56;96588.47;;;15.50;67.99
21821;BME280;11073;48.586;12.066;2022-09-04T03:39:34;96598.56;;;15.44;67.77
21821;BME280;11073;48.586;12.066;2022-09-04T03:42:14;96601.28;;;15.44;68.03
21821;BME280;11073;48.586;12.066;2022-09-04T03:44:56;96605.91;;;15.49;67.78
21821;BME280;11073;48.586;12.066;2022-09-04T03:47:34;96601.03;;;15.51;67.91
21821;BME280;11073;48.586;12.066;2022-09-04T03:50:17;96606.97;;;15.42;67.99
21821;BME280;11073;48.586;12.066;2022-09-04T03:52:57;96614.09;;;15.43;68.35
21821;BME280;11073;48.586;12.066;2022-09-04T03:55:55;96611.38;;;15.49;68.31
21821;BME280;11073;48.586;12.066;2022-09-04T03:58:31;96604.25;;;15.42;68.24
21821;BME280;11073;48.586;12.066;2022-09-04T04:01:08;96601.25;;;15.39;68.25
21821;BME280;11073;48.586;12.066;2022-09-04T04:04:23;96597.69;;;15.38;68.24
21821;BME280;11073;48.586;12.066;2022-09-04T04:07:01;96601.53;;;15.37;68.35
21821;BME280;11073;48.586;12.066;2022-09-04T04:09:48;96607.56;;;15.44;67.97
21821;BME280;11073;48.586;12.066;2022-09-04T04:12:43;96606.97;;;15.37;67.85
21821;BME280;11073;48.586;12.066;2022-09-04T04:15:33;96615.66;;;15.34;67.76
21821;BME280;11073;48.586;12.066;2022-09-04T04:18:31;96611.84;;;15.35;67.83
21821;BME280;11073;48.586;12.066;2022-09-04T04:21:08;96615.69;;;15.39;67.75
21821;BME280;11073;48.586;12.066;2022-09-04T04:24:07;96621.69;;;15.41;67.82
21821;BME280;11073;48.586;12.066;2022-09-04T04:26:51;96618.16;;;15.41;67.69
21821;BME280;11073;48.586;12.066;2022-09-04T04:29:40;96617.31;;;15.35;67.49
21821;BME280;11073;48.586;12.066;2022-09-04T04:35:26;96620.28;;;15.29;67.86
21821;BME280;11073;48.586;12.066;2022-09-04T04:38:06;96622.16;;;15.23;68.08
21821;BME280;11073;48.586;12.066;2022-09-04T04:40:52;96627.84;;;15.16;68.35
21821;BME280;11073;48.586;12.066;2022-09-04T04:43:27;96640.66;;;15.16;68.44
21821;BME280;11073;48.586;12.066;2022-09-04T04:46:03;96639.84;;;15.21;68.55
21821;BME280;11073;48.586;12.066;2022-09-04T04:49:02;96634.41;;;15.21;68.71
21821;BME280;11073;48.586;12.066;2022-09-04T04:51:50;96646.97;;;15.22;68.72
21821;BME280;11073;48.586;12.066;2022-09-04T04:54:33;96644.81;;;15.24;68.83
21821;BME280;11073;48.586;12.066;2022-09-04T04:57:12;96649.94;;;15.20;68.72
21821;BME280;11073;48.586;12.066;2022-09-04T04:59:49;96657.56;;;15.18;69.03
21821;BME280;11073;48.586;12.066;2022-09-04T05:02:27;96654.84;;;15.18;69.17
21821;BME280;11073;48.586;12.066;2022-09-04T05:05:03;96659.22;;;15.19;69.34
21821;BME280;11073;48.586;12.066;2022-09-04T05:07:41;96663.56;;;15.15;69.31
21821;BME280;11073;48.586;12.066;2022-09-04T05:10:17;96672.84;;;15.14;69.52
21821;BME280;11073;48.586;12.066;2022-09-04T05:13:05;96676.06;;;15.11;69.88
21821;BME280;11073;48.586;12.066;2022-09-04T05:15:39;96678.50;;;15.07;69.99
21821;BME280;11073;48.586;12.066;2022-09-04T05:18:34;96676.63;;;15.13;70.05
21821;BME280;11073;48.586;12.066;2022-09-04T05:21:11;96682.44;;;15.22;70.10
21821;BME280;11073;48.586;12.066;2022-09-04T05:23:50;96687.94;;;15.32;69.98
21821;BME280;11073;48.586;12.066;2022-09-04T05:26:26;96694.53;;;15.41;70.26
21821;BME280;11073;48.586;12.066;2022-09-04T05:29:04;96694.63;;;15.51;69.99
21821;BME280;11073;48.586;12.066;2022-09-04T05:31:41;96693.84;;;15.61;70.00
21821;BME280;11073;48.586;12.066;2022-09-04T05:34:19;96699.31;;;15.61;69.81
21821;BME280;11073;48.586;12.066;2022-09-04T05:36:58;96701.00;;;15.67;70.40
21821;BME280;11073;48.586;12.066;2022-09-04T05:39:38;96707.56;;;15.66;70.52
21821;BME280;11073;48.586;12.066;2022-09-04T05:42:42;96712.75;;;15.67;70.79
21821;BME280;11073;48.586;12.066;2022-09-04T05:45:24;96713.03;;;15.66;70.82
21821;BME280;11073;48.586;12.066;2022-09-04T05:48:07;96714.13;;;15.70;71.19
21821;BME280;11073;48.586;12.066;2022-09-04T05:50:48;96722.91;;;15.77;71.45
21821;BME280;11073;48.586;12.066;2022-09-04T05:53:38;96721.81;;;15.78;71.69
21821;BME280;11073;48.586;12.066;2022-09-04T05:56:19;96716.09;;;15.80;71.83
21821;BME280;11073;48.586;12.066;2022-09-04T05:59:04;96730.81;;;15.79;71.98
21821;BME280;11073;48.586;12.066;2022-09-04T06:01:56;96730.88;;;15.89;72.26
21821;BME280;11073;48.586;12.066;2022-09-04T06:04:51;96736.94;;;15.96;72.19
21821;BME280;11073;48.586;12.066;2022-09-04T06:07:26;96736.97;;;16.01;72.18
21821;BME280;11073;48.586;12.066;2022-09-04T06:09:59;96740.28;;;16.08;72.33
21821;BME280;11073;48.586;12.066;2022-09-04T06:12:59;96742.72;;;16.15;72.22
21821;BME280;11073;48.586;12.066;2022-09-04T06:15:44;96753.69;;;16.20;72.56
21821;BME280;11073;48.586;12.066;2022-09-04T06:18:36;96755.66;;;16.30;72.62
21821;BME280;11073;48.586;12.066;2022-09-04T06:21:28;96759.22;;;16.40;72.56
21821;BME280;11073;48.586;12.066;2022-09-04T06:24:08;96760.94;;;16.51;72.45
21821;BME280;11073;48.586;12.066;2022-09-04T06:26:56;96762.31;;;16.59;72.30
21821;BME280;11073;48.586;12.066;2022-09-04T06:29:48;96764.78;;;16.61;72.25
21821;BME280;11073;48.586;12.066;2022-09-04T06:35:28;96767.28;;;16.72;72.01
21821;BME280;11073;48.586;12.066;2022-09-04T06:38:10;96769.50;;;16.80;71.94
21821;BME280;11073;48.586;12.066;2022-09-04T06:40:51;96776.06;;;16.85;71.69
21821;BME280;11073;48.586;12.066;2022-09-04T06:43:31;96781.56;;;16.95;71.55
21821;BME280;11073;48.586;12.066;2022-09-04T06:46:14;96782.38;;;17.05;71.61
21821;BME280;11073;48.586;12.066;2022-09-04T06:48:52;96777.19;;;17.09;71.47
21821;BME280;11073;48.586;12.066;2022-09-04T06:51:37;96794.16;;;17.11;71.04
21821;BME280;11073;48.586;12.066;2022-09-04T06:54:15;96783.50;;;17.09;71.02
21821;BME280;11073;48.586;12.066;2022-09-04T06:56:56;96791.41;;;17.16;71.17
21821;BME280;11073;48.586;12.066;2022-09-04T06:59:38;96785.41;;;17.14;70.96
21821;BME280;11073;48.586;12.066;2022-09-04T07:02:22;96790.59;;;17.16;71.03
21821;BME280;11073;48.586;12.066;2022-09-04T07:05:02;96789.53;;;17.17;71.40
21821;BME280;11073;48.586;12.066;2022-09-04T07:07:41;96805.94;;;17.27;71.31
21821;BME280;11073;48.586;12.066;2022-09-04T07:10:15;96806.22;;;17.30;71.27
21821;BME280;11073;48.586;12.066;2022-09-04T07:15:56;96802.66;;;17.55;70.90
21821;BME280;11073;48.586;12.066;2022-09-04T07:18:47;96807.84;;;17.67;70.67
21821;BME280;11073;48.586;12.066;2022-09-04T07:21:27;96808.16;;;17.76;70.42
21821;BME280;11073;48.586;12.066;2022-09-04T07:24:01;96809.81;;;17.82;70.20
21821;BME280;11073;48.586;12.066;2022-09-04T07:26:38;96807.88;;;17.87;70.09
21821;BME280;11073;48.586;12.066;2022-09-04T07:29:28;96805.66;;;17.95;69.73
21821;BME280;11073;48.586;12.066;2022-09-04T07:32:03;96816.91;;;17.88;69.92
21821;BME280;11073;48.586;12.066;2022-09-04T07:34:40;96819.63;;;17.98;69.93
21821;BME280;11073;48.586;12.066;2022-09-04T07:37:20;96829.75;;;18.03;69.83
21821;BME280;11073;48.586;12.066;2022-09-04T07:39:58;96827.00;;;18.08;69.73
21821;BME280;11073;48.586;12.066;2022-09-04T07:42:38;96840.69;;;18.08;69.56
21821;BME280;11073;48.586;12.066;2022-09-04T07:45:17;96836.31;;;18.12;69.63
21821;BME280;11073;48.586;12.066;2022-09-04T07:47:58;96847.25;;;18.27;69.69
21821;BME280;11073;48.586;12.066;2022-09-04T07:50:34;96834.88;;;18.40;69.53
21821;BME280;11073;48.586;12.066;2022-09-04T07:53:17;96833.78;;;18.36;69.53
21821;BME280;11073;48.586;12.066;2022-09-04T07:55:56;96850.78;;;18.38;69.78
21821;BME280;11073;48.586;12.066;2022-09-04T07:58:40;96856.50;;;18.46;69.72
21821;BME280;11073;48.586;12.066;2022-09-04T08:01:26;96858.94;;;18.53;69.69
21821;BME280;11073;48.586;12.066;2022-09-04T08:04:25;96862.22;;;18.60;69.89
21821;BME280;11073;48.586;12.066;2022-09-04T08:07:00;96869.34;;;18.77;69.42
21821;BME280;11073;48.586;12.066;2022-09-04T08:09:49;96875.06;;;18.80;69.53
21821;BME280;11073;48.586;12.066;2022-09-04T08:12:47;96870.38;;;18.86;68.99
21821;BME280;11073;48.586;12.066;2022-09-04T08:15:27;96869.28;;;18.82;69.47
21821;BME280;11073;48.586;12.066;2022-09-04T08:18:22;96870.38;;;18.91;69.24
21821;BME280;11073;48.586;12.066;2022-09-04T08:21:05;96871.72;;;18.93;68.97
21821;BME280;11073;48.586;12.066;2022-09-04T08:23:53;96874.53;;;18.83;68.80
21821;BME280;11073;48.586;12.066;2022-09-04T08:26:31;96872.59;;;18.84;69.06
21821;BME280;11073;48.586;12.066;2022-09-04T08:29:19;96873.34;;;18.94;69.28
21821;BME280;11073;48.586;12.066;2022-09-04T08:31:58;96875.72;;;19.11;69.36
21821;BME280;11073;48.586;12.066;2022-09-04T08:34:45;96876.50;;;19.22;69.05
21821;BME280;11073;48.586;12.066;2022-09-04T08:37:24;96885.25;;;19.29;68.81
21821;BME280;11073;48.586;12.066;2022-09-04T08:43:16;96892.72;;;19.68;68.54
21821;BME280;11073;48.586;12.066;2022-09-04T08:46:20;96904.94;;;19.86;67.56
21821;BME280;11073;48.586;12.066;2022-09-04T08:49:20;96905.31;;;20.08;67.13
21821;BME280;11073;48.586;12.066;2022-09-04T08:52:25;96895.22;;;20.27;67.01
21821;BME280;11073;48.586;12.066;2022-09-04T08:55:25;96893.50;;;20.65;66.00
21821;BME280;11073;48.586;12.066;2022-09-04T08:58:20;96892.31;;;20.96;65.52
21821;BME280;11073;48.586;12.066;2022-09-04T09:04:25;96893.53;;;21.51;64.13
21821;BME280;11073;48.586;12.066;2022-09-04T09:07:26;96892.25;;;21.62;63.15
21821;BME280;11073;48.586;12.066;2022-09-04T09:10:18;96893.22;;;21.71;62.83
21821;BME280;11073;48.586;12.066;2022-09-04T09:13:16;96888.31;;;22.01;62.25
21821;BME280;11073;48.586;12.066;2022-09-04T09:19:22;96898.91;;;22.59;60.73
21821;BME280;11073;48.586;12.066;2022-09-04T09:22:07;96901.81;;;22.81;60.22
21821;BME280;11073;48.586;12.066;2022-09-04T09:40:21;96894.91;;;23.98;56.43
21821;BME280;11073;48.586;12.066;2022-09-04T09:46:46;96902.31;;;24.33;55.97
21821;BME280;11073;48.586;12.066;2022-09-04T09:49:55;96900.16;;;24.53;55.27
21821;BME280;11073;48.586;12.066;2022-09-04T09:52:56;96898.44;;;24.65;54.76
21821;BME280;11073;48.586;12.066;2022-09-04T09:59:02;96898.06;;;25.38;53.82
21821;BME280;11073;48.586;12.066;2022-09-04T10:02:02;96897.13;;;25.51;53.20
21821;BME280;11073;48.586;12.066;2022-09-04T10:08:19;96899.13;;;25.94;52.33
21821;BME280;11073;48.586;12.066;2022-09-04T10:11:08;96896.00;;;26.30;51.78
21821;BME280;11073;48.586;12.066;2022-09-04T10:14:03;96888.63;;;26.43;51.07
21821;BME280;11073;48.586;12.066;2022-09-04T10:17:01;96892.72;;;26.45;50.65
21821;BME280;11073;48.586;12.066;2022-09-04T10:20:05;96895.91;;;26.73;50.25
21821;BME280;11073;48.586;12.066;2022-09-04T10:25:51;96891.03;;;27.17;49.60
21821;BME280;11073;48.586;12.066;2022-09-04T10:28:43;96891.66;;;27.43;49.19
21821;BME280;11073;48.586;12.066;2022-09-04T10:31:33;96887.50;;;26.90;48.30
21821;BME280;11073;48.586;12.066;2022-09-04T10:34:22;96883.41;;;26.58;48.59
21821;BME280;11073;48.586;12.066;2022-09-04T10:37:08;96878.22;;;26.05;49.26
21821;BME280;11073;48.586;12.066;2022-09-04T10:39:46;96884.59;;;25.97;49.59
21821;BME280;11073;48.586;12.066;2022-09-04T10:42:44;96869.09;;;25.78;49.73
21821;BME280;11073;48.586;12.066;2022-09-04T10:45:24;96884.94;;;26.04;49.67
21821;BME280;11073;48.586;12.066;2022-09-04T10:48:47;96882.16;;;25.87;49.55
21821;BME280;11073;48.586;12.066;2022-09-04T10:51:35;96881.13;;;25.48;50.10
21821;BME280;11073;48.586;12.066;2022-09-04T10:54:40;96878.56;;;26.03;50.37
21821;BME280;11073;48.586;12.066;2022-09-04T10:57:21;96888.59;;;26.60;49.86
21821;BME280;11073;48.586;12.066;2022-09-04T11:00:05;96888.44;;;27.03;48.88
21821;BME280;11073;48.586;12.066;2022-09-04T11:06:10;96886.53;;;26.86;48.00
21821;BME280;11073;48.586;12.066;2022-09-04T11:12:05;96893.41;;;27.27;47.19
21821;BME280;11073;48.586;12.066;2022-09-04T11:15:04;96886.09;;;27.43;46.90
21821;BME280;11073;48.586;12.066;2022-09-04T11:21:03;96899.09;;;28.02;45.42
21821;BME280;11073;48.586;12.066;2022-09-04T11:24:24;96887.69;;;28.37;44.96
21821;BME280;11073;48.586;12.066;2022-09-04T11:30:27;96887.84;;;28.52;44.51
21821;BME280;11073;48.586;12.066;2022-09-04T11:33:32;96878.31;;;28.41;44.55
21821;BME280;11073;48.586;12.066;2022-09-04T11:36:25;96881.91;;;29.24;44.79
21821;BME280;11073;48.586;12.066;2022-09-04T11:39:34;96881.47;;;29.58;43.63
21821;BME280;11073;48.586;12.066;2022-09-04T11:42:27;96867.59;;;29.74;42.35
21821;BME280;11073;48.586;12.066;2022-09-04T11:45:28;96869.63;;;29.00;42.73
21821;BME280;11073;48.586;12.066;2022-09-04T11:48:26;96872.34;;;28.30;43.16
21821;BME280;11073;48.586;12.066;2022-09-04T11:51:16;96861.47;;;27.84;43.60
21821;BME280;11073;48.586;12.066;2022-09-04T11:54:08;96867.19;;;27.58;43.87
21821;BME280;11073;48.586;12.066;2022-09-04T11:56:54;96863.66;;;27.28;43.99
21821;BME280;11073;48.586;12.066;2022-09-04T11:59:48;96860.47;;;27.08;44.19
21821;BME280;11073;48.586;12.066;2022-09-04T12:05:42;96852.97;;;26.71;44.69
21821;BME280;11073;48.586;12.066;2022-09-04T12:08:28;96870.25;;;26.76;45.68
21821;BME280;11073;48.586;12.066;2022-09-04T12:11:21;96881.56;;;26.62;45.79
21821;BME280;11073;48.586;12.066;2022-09-04T12:14:08;96875.91;;;26.42;47.15
21821;BME280;11073;48.586;12.066;2022-09-04T12:22:55;96876.25;;;26.23;50.99
21821;BME280;11073;48.586;12.066;2022-09-04T12:28:49;96875.78;;;26.12;51.68
21821;BME280;11073;48.586;12.066;2022-09-04T12:32:01;96875.44;;;26.31;52.09
21821;BME280;11073;48.586;12.066;2022-09-04T12:34:45;96871.19;;;26.25;52.01
21821;BME280;11073;48.586;12.066;2022-09-04T12:37:47;96861.03;;;26.29;52.29
21821;BME280;11073;48.586;12.066;2022-09-04T12:40:30;96877.53;;;26.43;52.28
21821;BME280;11073;48.586;12.066;2022-09-04T12:43:12;96877.06;;;27.26;52.77
21821;BME280;11073;48.586;12.066;2022-09-04T12:45:50;96882.28;;;27.98;51.86
21821;BME280;11073;48.586;12.066;2022-09-04T12:48:36;96882.25;;;28.40;49.85
21821;BME280;11073;48.586;12.066;2022-09-04T12:51:11;96885.22;;;28.80;48.28
21821;BME280;11073;48.586;12.066;2022-09-04T12:53:54;96876.47;;;28.45;46.88
21821;BME280;11073;48.586;12.066;2022-09-04T12:56:32;96876.09;;;28.14;45.77
21821;BME280;11073;48.586;12.066;2022-09-04T12:59:26;96871.38;;;27.93;44.95
21821;BME280;11073;48.586;12.066;2022-09-04T13:02:00;96885.88;;;28.53;44.42
21821;BME280;11073;48.586;12.066;2022-09-04T13:04:39;96882.84;;;28.91;43.40
21821;BME280;11073;48.586;12.066;2022-09-04T13:07:25;96881.63;;;28.80;43.10
21821;BME280;11073;48.586;12.066;2022-09-04T13:10:06;96872.03;;;29.38;42.86
21821;BME280;11073;48.586;12.066;2022-09-04T13:12:44;96870.50;;;30.06;42.23
21821;BME280;11073;48.586;12.066;2022-09-04T13:15:38;96875.72;;;30.63;40.87
21821;BME280;11073;48.586;12.066;2022-09-04T13:18:19;96884.72;;;31.00;39.87
21821;BME280;11073;48.586;12.066;2022-09-04T13:20:59;96888.38;;;31.20;39.23
21821;BME280;11073;48.586;12.066;2022-09-04T13:23:46;96884.78;;;31.51;38.04
21821;BME280;11073;48.586;12.066;2022-09-04T13:26:25;96881.84;;;31.99;37.53
21821;BME280;11073;48.586;12.066;2022-09-04T13:29:05;96877.41;;;31.78;36.99
21821;BME280;11073;48.586;12.066;2022-09-04T13:31:58;96873.19;;;31.69;36.58
21821;BME280;11073;48.586;12.066;2022-09-04T13:34:42;96875.75;;;31.58;36.46
21821;BME280;11073;48.586;12.066;2022-09-04T13:37:24;96872.28;;;31.65;36.50
21821;BME280;11073;48.586;12.066;2022-09-04T13:40:14;96874.06;;;31.89;35.82
21821;BME280;11073;48.586;12.066;2022-09-04T13:43:10;96869.50;;;31.29;34.38
21821;BME280;11073;48.586;12.066;2022-09-04T13:45:46;96874.53;;;31.08;34.48
21821;BME280;11073;48.586;12.066;2022-09-04T13:48:28;96877.97;;;31.68;34.84
21821;BME280;11073;48.586;12.066;2022-09-04T13:51:03;96870.91;;;32.09;34.09
21821;BME280;11073;48.586;12.066;2022-09-04T13:53:53;96872.94;;;32.13;33.22
21821;BME280;11073;48.586;12.066;2022-09-04T13:56:31;96878.72;;;32.39;32.84
21821;BME280;11073;48.586;12.066;2022-09-04T13:59:04;96879.13;;;32.22;32.81
21821;BME280;11073;48.586;12.066;2022-09-04T14:01:39;96874.16;;;31.76;32.72
21821;BME280;11073;48.586;12.066;2022-09-04T14:04:15;96877.78;;;31.26;33.42
21821;BME280;11073;48.586;12.066;2022-09-04T14:06:55;96872.56;;;30.93;33.65
21821;BME280;11073;48.586;12.066;2022-09-04T14:09:28;96868.72;;;30.69;34.11
21821;BME280;11073;48.586;12.066;2022-09-04T14:15:24;96875.59;;;31.70;34.10
21821;BME280;11073;48.586;12.066;2022-09-04T14:18:05;96868.25;;;32.17;33.90
21821;BME280;11073;48.586;12.066;2022-09-04T14:20:46;96886.03;;;32.66;33.70
21821;BME280;11073;48.586;12.066;2022-09-04T14:23:26;96892.38;;;33.06;33.52
21821;BME280;11073;48.586;12.066;2022-09-04T14:26:04;96885.19;;;33.31;32.73
21821;BME280;11073;48.586;12.066;2022-09-04T14:28:46;96884.41;;;33.57;32.78
21821;BME280;11073;48.586;12.066;2022-09-04T14:31:21;96883.91;;;33.78;32.62
21821;BME280;11073;48.586;12.066;2022-09-04T14:34:04;96882.53;;;33.91;32.55
21821;BME280;11073;48.586;12.066;2022-09-04T14:36:48;96887.09;;;34.03;32.08
21821;BME280;11073;48.586;12.066;2022-09-04T14:39:26;96885.22;;;33.58;32.25
21821;BME280;11073;48.586;12.066;2022-09-04T14:42:19;96882.59;;;33.42;32.41
21821;BME280;11073;48.586;12.066;2022-09-04T14:45:04;96887.59;;;33.56;32.63
21821;BME280;11073;48.586;12.066;2022-09-04T14:47:42;96882.59;;;33.68;32.35
21821;BME280;11073;48.586;12.066;2022-09-04T14:50:15;96879.63;;;33.58;32.30
21821;BME280;11073;48.586;12.066;2022-09-04T14:52:48;96883.28;;;33.62;32.44
21821;BME280;11073;48.586;12.066;2022-09-04T14:55:24;96884.66;;;33.75;32.32
21821;BME280;11073;48.586;12.066;2022-09-04T14:57:57;96884.69;;;33.49;32.14
21821;BME280;11073;48.586;12.066;2022-09-04T15:00:31;96881.97;;;33.06;32.25
21821;BME280;11073;48.586;12.066;2022-09-04T15:03:07;96883.03;;;33.21;32.53
21821;BME280;11073;48.586;12.066;2022-09-04T15:05:43;96877.72;;;33.39;32.51
21821;BME280;11073;48.586;12.066;2022-09-04T15:08:25;96877.00;;;33.45;32.18
21821;BME280;11073;48.586;12.066;2022-09-04T15:10:56;96879.94;;;33.30;31.95
21821;BME280;11073;48.586;12.066;2022-09-04T15:13:45;96881.53;;;33.27;31.81
21821;BME280;11073;48.586;12.066;2022-09-04T15:16:24;96881.34;;;33.39;31.97
21821;BME280;11073;48.586;12.066;2022-09-04T15:19:01;96876.28;;;33.49;31.97
21821;BME280;11073;48.586;12.066;2022-09-04T15:21:38;96879.19;;;33.56;31.58
21821;BME280;11073;48.586;12.066;2022-09-04T15:24:15;96880.81;;;33.57;31.34
21821;BME280;11073;48.586;12.066;2022-09-04T15:26:54;96880.03;;;33.60;31.08
21821;BME280;11073;48.586;12.066;2022-09-04T15:29:32;96876.41;;;33.59;30.78
21821;BME280;11073;48.586;12.066;2022-09-04T15:32:06;96880.00;;;33.56;30.38
21821;BME280;11073;48.586;12.066;2022-09-04T15:34:40;96890.69;;;33.47;30.23